createdAt,value
2022-11-02T00:01:29.851Z,97768.09
2022-11-02T00:06:31.675Z,97758.34
2022-11-02T00:11:33.506Z,97762.72
2022-11-02T00:16:38.245Z,97750.75
2022-11-02T00:21:40.712Z,97761.63
2022-11-02T00:26:42.356Z,97762.81
2022-11-02T00:31:44.105Z,97763.06
2022-11-02T00:36:49.597Z,97764.09
2022-11-02T00:41:54.758Z,97764.41
2022-11-02T00:46:56.624Z,97778.41
2022-11-02T00:51:59.537Z,97775.22
2022-11-02T00:57:03.480Z,97775.72
2022-11-02T01:02:05.746Z,97778.16
2022-11-02T01:07:08.219Z,97787.13
2022-11-02T01:12:11.489Z,97784.44
2022-11-02T01:17:13.195Z,97785.94
2022-11-02T01:22:15.956Z,97787.41
2022-11-02T01:27:17.673Z,97782.88
2022-11-02T01:32:19.807Z,97783.16
2022-11-02T01:37:21.921Z,97791.88
2022-11-02T01:42:26.565Z,97783.91
2022-11-02T01:47:37.828Z,97780.94
2022-11-02T01:52:40.261Z,97781.19
2022-11-02T01:57:45.678Z,97786.59
2022-11-02T02:02:54.402Z,97792.59
2022-11-02T02:07:56.489Z,97792.59
2022-11-02T02:12:58.394Z,97784.25
2022-11-02T02:18:20.550Z,97792.72
2022-11-02T02:23:46.448Z,97801.44
2022-11-02T02:29:21.138Z,97805.47
2022-11-02T02:34:30.573Z,97804.03
2022-11-02T02:39:42.997Z,97802.22
2022-11-02T02:45:17.850Z,97811.09
2022-11-02T02:50:27.556Z,97812.72
2022-11-02T02:55:34.373Z,97809.81
2022-11-02T03:00:36.792Z,97820.16
2022-11-02T03:05:38.947Z,97816.53
2022-11-02T03:11:13.325Z,97812.59
2022-11-02T03:16:32.489Z,97821.00
2022-11-02T03:21:42.196Z,97818.03
2022-11-02T03:26:51.075Z,97824.69
2022-11-02T03:32:09.134Z,97836.78
2022-11-02T03:37:11.158Z,97841.06
2022-11-02T03:42:18.862Z,97838.59
2022-11-02T03:47:23.867Z,97843.03
2022-11-02T03:52:30.195Z,97845.84
2022-11-02T03:57:43.325Z,97845.56
2022-11-02T04:02:48.904Z,97848.84
2022-11-02T04:08:12.107Z,97853.75
2022-11-02T04:13:32.591Z,97837.75
2022-11-02T04:18:53.382Z,97835.38
2022-11-02T04:24:15.194Z,97815.75
2022-11-02T04:29:18.844Z,97830.34
2022-11-02T04:34:21.228Z,97825.31
2022-11-02T04:39:22.968Z,97825.69
2022-11-02T04:44:27.917Z,97830.16
2022-11-02T04:49:40.294Z,97835.81
2022-11-02T04:54:46.275Z,97831.56
2022-11-02T04:59:48.381Z,97833.13
2022-11-02T05:04:50.383Z,97855.66
2022-11-02T05:09:53.094Z,97852.56
2022-11-02T05:14:54.865Z,97855.34
2022-11-02T05:19:57.152Z,97860.56
2022-11-02T05:24:59.145Z,97842.03
2022-11-02T05:30:01.092Z,97843.94
2022-11-02T05:35:04.681Z,97849.63
2022-11-02T05:40:08.808Z,97860.44
2022-11-02T05:45:11.912Z,97860.47
2022-11-02T05:50:13.727Z,97854.91
2022-11-02T05:55:15.531Z,97851.22
2022-11-02T06:00:17.459Z,97868.66
2022-11-02T06:05:19.185Z,97874.03
2022-11-02T06:10:20.875Z,97881.38
2022-11-02T06:15:22.631Z,97889.44
2022-11-02T06:20:24.501Z,97894.78
2022-11-02T06:25:26.428Z,97900.81
2022-11-02T06:30:28.159Z,97913.38
2022-11-02T06:35:29.817Z,97919.78
2022-11-02T06:40:31.702Z,97916.50
2022-11-02T06:45:33.457Z,97935.22
2022-11-02T06:50:35.128Z,97946.72
2022-11-02T06:55:36.836Z,97947.44
2022-11-02T07:00:38.680Z,97961.88
2022-11-02T07:05:40.496Z,97963.56
2022-11-02T07:10:42.114Z,97976.03
2022-11-02T07:15:43.900Z,97971.56
2022-11-02T07:20:45.670Z,97983.91
2022-11-02T07:25:47.370Z,97995.66
2022-11-02T07:30:49.983Z,97994.66
2022-11-02T07:35:51.930Z,97984.31
2022-11-02T07:40:53.645Z,97987.84
2022-11-02T07:45:56.116Z,97984.03
2022-11-02T07:51:00.873Z,97974.97
2022-11-02T07:56:04.200Z,97964.09
2022-11-02T08:01:06.069Z,97983.97
2022-11-02T08:06:08.059Z,97977.16
2022-11-02T08:11:10.048Z,97978.84
2022-11-02T08:16:11.887Z,97980.00
2022-11-02T08:21:13.514Z,97991.41
2022-11-02T08:26:15.274Z,97998.84
2022-11-02T08:31:17.758Z,97982.78
2022-11-02T08:36:19.480Z,97994.03
2022-11-02T08:41:22.309Z,97983.84
2022-11-02T08:46:24.683Z,97983.47
2022-11-02T08:51:26.471Z,97979.91
2022-11-02T08:56:28.601Z,97977.94
2022-11-02T09:01:30.836Z,97980.31
2022-11-02T09:06:32.854Z,97987.56
2022-11-02T09:11:34.804Z,97981.19
2022-11-02T09:16:41.206Z,97986.53
2022-11-02T09:21:43.930Z,97980.25
2022-11-02T09:26:45.784Z,97990.41
2022-11-02T09:31:48.936Z,97989.06
2022-11-02T09:36:50.832Z,97981.72
2022-11-02T09:42:09.500Z,97988.69
2022-11-02T09:48:10.857Z,97982.94
2022-11-02T09:52:38.347Z,97989.06
2022-11-02T09:57:43.984Z,97991.09
2022-11-02T10:03:07.162Z,97989.75
2022-11-02T10:08:36.611Z,97987.94
2022-11-02T10:13:52.653Z,97996.28
2022-11-02T10:18:58.362Z,98005.13
2022-11-02T10:24:18.663Z,98002.66
2022-11-02T10:29:38.839Z,98006.03
2022-11-02T10:34:42.247Z,97998.59
2022-11-02T10:40:02.439Z,98002.75
2022-11-02T10:45:27.469Z,98009.38
2022-11-02T10:50:59.434Z,98006.31
2022-11-02T10:56:16.317Z,98009.66
2022-11-02T11:01:18.101Z,98007.50
2022-11-02T11:06:20.551Z,98006.41
2022-11-02T11:11:27.232Z,98011.91
2022-11-02T11:16:42.350Z,98015.22
2022-11-02T11:21:44.530Z,98006.94
2022-11-02T11:26:46.501Z,98006.66
2022-11-02T11:31:48.639Z,98008.03
2022-11-02T11:36:50.511Z,98006.38
2022-11-02T11:41:52.502Z,97996.47
2022-11-02T11:46:57.787Z,97997.31
2022-11-02T11:52:01.842Z,97990.69
2022-11-02T11:57:25.365Z,97979.38
2022-11-02T12:02:41.060Z,97983.53
2022-11-02T12:08:07.766Z,97971.13
2022-11-02T12:13:43.201Z,97971.38
2022-11-02T12:18:50.347Z,97956.78
2022-11-02T12:24:13.623Z,97962.84
2022-11-02T12:29:47.602Z,97960.63
2022-11-02T12:35:23.098Z,97952.91
2022-11-02T12:40:43.325Z,97948.50
2022-11-02T12:45:56.999Z,97942.44
2022-11-02T12:51:21.956Z,97935.25
2022-11-02T12:56:42.806Z,97946.56
2022-11-02T13:01:47.409Z,97936.91
2022-11-02T13:06:53.944Z,97936.88
2022-11-02T13:12:14.633Z,97941.84
2022-11-02T13:17:49.973Z,97943.19
2022-11-02T13:23:04.617Z,97930.53
2022-11-02T13:28:30.912Z,97931.38
2022-11-02T13:33:54.793Z,97928.06
2022-11-02T13:39:06.323Z,97926.69
2022-11-02T13:44:34.943Z,97922.53
2022-11-02T13:49:41.209Z,97924.13
2022-11-02T13:54:52.124Z,97929.63
2022-11-02T13:59:54.311Z,97922.16
2022-11-02T14:04:56.288Z,97918.81
2022-11-02T14:10:07.260Z,97917.13
2022-11-02T14:15:14.817Z,97920.78
2022-11-02T14:20:35.910Z,97914.75
2022-11-02T14:25:54.975Z,97908.16
2022-11-02T14:31:02.057Z,97916.44
2022-11-02T14:36:09.690Z,97904.03
2022-11-02T14:41:44.115Z,97908.75
2022-11-02T14:47:07.783Z,97899.38
2022-11-02T14:52:15.641Z,97913.72
2022-11-02T14:57:17.235Z,97906.56
2022-11-02T15:02:27.925Z,97904.66
2022-11-02T15:07:29.535Z,97908.78
2022-11-02T15:12:41.012Z,97904.41
2022-11-02T15:17:42.648Z,97914.34
2022-11-02T15:22:48.685Z,97916.25
2022-11-02T15:27:53.622Z,97911.22
2022-11-02T15:33:06.147Z,97925.78
2022-11-02T15:38:17.357Z,97912.78
2022-11-02T15:43:50.124Z,97919.53
2022-11-02T15:49:00.174Z,97919.97
2022-11-02T15:54:20.127Z,97913.31
2022-11-02T15:59:24.943Z,97907.19
2022-11-02T16:04:27.822Z,97902.97
2022-11-02T16:09:32.988Z,97907.59
2022-11-02T16:14:34.679Z,97902.38
2022-11-02T16:19:36.405Z,97901.16
2022-11-02T16:24:47.050Z,97896.63
2022-11-02T16:29:50.464Z,97905.63
2022-11-02T16:34:52.256Z,97911.22
2022-11-02T16:39:54.240Z,97913.81
2022-11-02T16:45:00.737Z,97914.84
2022-11-02T16:50:03.891Z,97918.03
2022-11-02T16:55:33.765Z,97915.41
2022-11-02T17:00:36.126Z,97917.38
2022-11-02T17:05:42.694Z,97921.38
2022-11-02T17:10:44.811Z,97917.88
2022-11-02T17:15:51.424Z,97913.75
2022-11-02T17:21:29.210Z,97911.97
2022-11-02T17:26:37.334Z,97911.47
2022-11-02T17:31:41.211Z,97911.78
2022-11-02T17:36:44.824Z,97924.25
2022-11-02T17:42:11.904Z,97919.47
2022-11-02T17:47:16.600Z,97912.25
2022-11-02T17:52:18.367Z,97906.78
2022-11-02T17:57:20.851Z,97903.72
2022-11-02T18:02:22.809Z,97907.69
2022-11-02T18:07:24.489Z,97915.66
2022-11-02T18:12:26.178Z,97906.34
2022-11-02T18:17:31.086Z,97896.59
2022-11-02T18:22:36.453Z,97882.53
2022-11-02T18:27:38.500Z,97878.97
2022-11-02T18:32:41.818Z,97882.59
2022-11-02T18:37:43.816Z,97874.72
2022-11-02T18:42:46.228Z,97874.53
2022-11-02T18:47:47.853Z,97868.09
2022-11-02T18:52:50.731Z,97864.28
2022-11-02T18:57:52.418Z,97860.97
2022-11-02T19:02:54.124Z,97846.53
2022-11-02T19:08:18.424Z,97842.84
2022-11-02T19:13:20.139Z,97841.59
2022-11-02T19:18:21.816Z,97840.28
2022-11-02T19:23:23.484Z,97829.53
2022-11-02T19:28:25.158Z,97819.09
2022-11-02T19:33:29.076Z,97823.09
2022-11-02T19:38:36.222Z,97816.50
2022-11-02T19:43:39.207Z,97820.47
2022-11-02T19:48:40.911Z,97821.91
2022-11-02T19:53:44.839Z,97810.50
2022-11-02T19:58:49.367Z,97816.69
2022-11-02T20:03:51.544Z,97810.63
2022-11-02T20:08:57.266Z,97809.53
2022-11-02T20:14:01.199Z,97803.34
2022-11-02T20:19:03.046Z,97815.72
2022-11-02T20:24:05.414Z,97808.25
2022-11-02T20:29:09.529Z,97806.81
2022-11-02T20:34:13.324Z,97803.28
2022-11-02T20:39:15.637Z,97803.41
2022-11-02T20:44:19.147Z,97801.81
2022-11-02T20:49:44.274Z,97801.81
2022-11-02T20:54:44.233Z,97799.13
2022-11-02T20:59:45.983Z,97809.00
2022-11-02T21:04:47.687Z,97799.75
2022-11-02T21:09:49.588Z,97797.84
2022-11-02T21:14:51.233Z,97790.75
2022-11-02T21:19:58.213Z,97794.88
2022-11-02T21:25:11.477Z,97792.16
2022-11-02T21:30:13.838Z,97787.41
2022-11-02T21:35:15.586Z,97792.31
2022-11-02T21:40:17.243Z,97795.75
2022-11-02T21:45:20.072Z,97784.25
2022-11-02T21:50:24.540Z,97793.72
2022-11-02T21:55:26.159Z,97788.59
2022-11-02T22:00:47.935Z,97780.78
2022-11-02T22:05:55.672Z,97773.69
2022-11-02T22:10:57.531Z,97781.03
2022-11-02T22:16:07.589Z,97763.25
2022-11-02T22:21:10.600Z,97769.16
2022-11-02T22:26:14.346Z,97768.00
2022-11-02T22:31:25.459Z,97772.84
2022-11-02T22:36:29.724Z,97768.00
2022-11-02T22:41:33.816Z,97771.66
2022-11-02T22:46:39.075Z,97760.41
2022-11-02T22:51:43.588Z,97756.38
2022-11-02T22:56:47.666Z,97756.59
2022-11-02T23:01:51.208Z,97757.91
2022-11-02T23:06:53.025Z,97746.03
2022-11-02T23:11:54.706Z,97740.72
2022-11-02T23:16:56.692Z,97733.34
2022-11-02T23:22:21.684Z,97734.56
2022-11-02T23:27:23.801Z,97737.63
2022-11-02T23:32:28.216Z,97733.16
2022-11-02T23:37:30.535Z,97726.19
2022-11-02T23:42:32.390Z,97732.97
2022-11-02T23:47:52.475Z,97713.09
2022-11-02T23:53:13.093Z,97710.44
2022-11-02T23:58:14.849Z,97702.97
